Time;durP1;ratioP1;P1;durP2;ratioP2;P2;SDS_P1;SDS_P2;PMS_P1;PMS_P2;Temp;Humidity;BMP_temperature;BMP_pressure;BME280_temperature;BME280_humidity;BME280_pressure;Samples;Min_cycle;Max_cycle;Signal;HPM_P1;HPM_P2
2022/06/21 00:01:13;;;;;;;7.95;2.00;;;;;;;;;;4947662;28;20063;-74
2022/06/21 00:03:42;;;;;;;10.23;2.42;;;;;;;;;;4951132;28;20150;-74
2022/06/21 00:06:11;;;;;;;11.63;1.70;;;;;;;;;;4950685;28;20153;-74
2022/06/21 00:08:38;;;;;;;8.18;1.45;;;;;;;;;;4952033;28;20493;-74
2022/06/21 00:11:15;;;;;;;9.98;1.80;;;;;;;;;;4950346;28;20109;-74
2022/06/21 00:13:42;;;;;;;6.38;1.80;;;;;;;;;;4951812;28;20051;-74
2022/06/21 00:16:13;;;;;;;7.53;2.20;;;;;;;;;;4950734;28;20051;-74
2022/06/21 00:18:42;;;;;;;6.63;1.60;;;;;;;;;;4949286;28;20063;-74
2022/06/21 00:21:11;;;;;;;9.93;2.15;;;;;;;;;;4950386;28;20067;-74
2022/06/21 00:23:39;;;;;;;9.00;2.00;;;;;;;;;;4945681;28;20059;-74
2022/06/21 00:26:06;;;;;;;6.75;2.00;;;;;;;;;;4947865;28;20122;-74
2022/06/21 00:28:33;;;;;;;12.35;2.45;;;;;;;;;;4949426;28;20105;-74
2022/06/21 00:31:00;;;;;;;6.43;2.10;;;;;;;;;;4949679;28;20065;-74
2022/06/21 00:33:29;;;;;;;7.85;2.60;;;;;;;;;;4950028;28;20047;-74
2022/06/21 00:36:00;;;;;;;12.82;2.30;;;;;;;;;;4969397;28;20129;-74
2022/06/21 00:38:28;;;;;;;9.68;1.90;;;;;;;;;;4950891;28;20055;-74
2022/06/21 00:40:56;;;;;;;9.00;1.90;;;;;;;;;;4951800;28;20065;-74
2022/06/21 00:43:26;;;;;;;10.00;2.35;;;;;;;;;;4951886;28;20174;-74
2022/06/21 00:45:53;;;;;;;7.10;1.80;;;;;;;;;;4952546;28;20061;-74
2022/06/21 00:48:24;;;;;;;6.60;1.70;;;;;;;;;;4952116;28;20114;-74
2022/06/21 00:50:53;;;;;;;5.18;1.63;;;;;;;;;;4946046;28;21075;-74
2022/06/21 00:53:25;;;;;;;6.25;1.90;;;;;;;;;;4952024;28;20042;-74
2022/06/21 00:55:54;;;;;;;8.00;1.88;;;;;;;;;;4949341;28;20055;-74
2022/06/21 00:58:23;;;;;;;7.50;1.90;;;;;;;;;;4952629;28;20659;-74
2022/06/21 01:00:55;;;;;;;6.00;1.73;;;;;;;;;;4951086;28;20223;-70
2022/06/21 01:03:24;;;;;;;8.52;2.08;;;;;;;;;;4951903;28;20134;-69
2022/06/21 01:05:52;;;;;;;5.25;1.48;;;;;;;;;;4949422;28;20398;-69
2022/06/21 01:08:21;;;;;;;5.18;1.60;;;;;;;;;;4951502;28;20101;-69
2022/06/21 01:10:53;;;;;;;7.40;1.80;;;;;;;;;;4952448;28;20295;-69
2022/06/21 01:13:23;;;;;;;6.47;2.22;;;;;;;;;;4951055;28;20530;-69
2022/06/21 01:15:52;;;;;;;7.50;2.22;;;;;;;;;;4947498;28;20445;-69
2022/06/21 01:18:21;;;;;;;6.90;2.08;;;;;;;;;;4949314;28;20062;-69
2022/06/21 01:20:53;;;;;;;7.10;2.25;;;;;;;;;;4949159;28;20058;-69
2022/06/21 01:23:25;;;;;;;5.68;1.88;;;;;;;;;;4943809;28;20513;-69
2022/06/21 01:25:57;;;;;;;8.77;1.87;;;;;;;;;;4951034;28;20051;-69
2022/06/21 01:28:26;;;;;;;6.80;2.17;;;;;;;;;;4950148;28;20106;-69
2022/06/21 01:30:55;;;;;;;7.95;1.80;;;;;;;;;;4952146;28;20117;-69
2022/06/21 01:33:27;;;;;;;7.15;1.92;;;;;;;;;;4951096;28;20039;-69
2022/06/21 01:35:56;;;;;;;6.32;1.50;;;;;;;;;;4943232;28;20071;-69
2022/06/21 01:38:24;;;;;;;5.65;1.88;;;;;;;;;;4947436;28;20056;-69
2022/06/21 01:40:54;;;;;;;5.50;1.77;;;;;;;;;;4945419;29;20051;-69
2022/06/21 01:43:23;;;;;;;5.75;1.90;;;;;;;;;;4941578;28;20051;-69
2022/06/21 01:46:01;;;;;;;5.40;1.83;;;;;;;;;;4939203;28;20055;-69
2022/06/21 01:48:31;;;;;;;8.35;1.98;;;;;;;;;;4947794;28;20134;-69
2022/06/21 01:51:00;;;;;;;8.50;1.95;;;;;;;;;;4942622;29;20047;-69
2022/06/21 01:53:28;;;;;;;8.88;2.38;;;;;;;;;;4945561;28;20106;-69
2022/06/21 01:55:57;;;;;;;8.65;1.90;;;;;;;;;;4948188;28;20110;-69
2022/06/21 01:58:26;;;;;;;7.68;2.20;;;;;;;;;;4945873;29;20515;-69
2022/06/21 02:00:57;;;;;;;6.78;2.13;;;;;;;;;;4944397;28;20054;-69
2022/06/21 02:03:27;;;;;;;8.30;2.45;;;;;;;;;;4947334;29;20482;-69
2022/06/21 02:05:56;;;;;;;9.57;2.33;;;;;;;;;;4943873;28;20110;-69
2022/06/21 02:08:25;;;;;;;10.95;2.40;;;;;;;;;;4941000;29;20121;-69
2022/06/21 02:10:54;;;;;;;4.82;2.22;;;;;;;;;;4944316;28;20141;-69
2022/06/21 02:13:25;;;;;;;6.10;2.38;;;;;;;;;;4946684;29;20058;-69
2022/06/21 02:15:56;;;;;;;9.85;2.45;;;;;;;;;;4946574;28;20102;-69
2022/06/21 02:18:25;;;;;;;7.53;2.55;;;;;;;;;;4943679;28;20102;-69
2022/06/21 02:20:56;;;;;;;8.45;3.03;;;;;;;;;;4942265;28;20055;-69
2022/06/21 02:23:23;;;;;;;8.23;2.55;;;;;;;;;;4941105;28;20055;-69
2022/06/21 02:25:51;;;;;;;11.10;3.00;;;;;;;;;;4940303;28;20067;-69
2022/06/21 02:28:19;;;;;;;9.02;3.38;;;;;;;;;;4945566;28;20101;-69
2022/06/21 02:30:46;;;;;;;9.60;2.80;;;;;;;;;;4942312;29;20058;-69
2022/06/21 02:33:15;;;;;;;8.63;2.70;;;;;;;;;;4941650;28;20190;-70
2022/06/21 02:35:45;;;;;;;6.82;2.65;;;;;;;;;;4938761;29;20069;-69
2022/06/21 02:38:16;;;;;;;9.07;2.60;;;;;;;;;;4942887;29;20055;-69
2022/06/21 02:40:45;;;;;;;5.75;2.35;;;;;;;;;;4939763;29;20180;-69
2022/06/21 02:43:14;;;;;;;8.38;2.70;;;;;;;;;;4944698;29;20051;-69
2022/06/21 02:45:44;;;;;;;6.70;2.78;;;;;;;;;;4941528;28;21223;-69
2022/06/21 02:48:14;;;;;;;10.63;2.72;;;;;;;;;;4942792;29;20053;-69
2022/06/21 02:50:43;;;;;;;9.45;3.08;;;;;;;;;;4945465;28;20129;-69
2022/06/21 02:53:16;;;;;;;8.20;3.10;;;;;;;;;;4944846;28;20114;-69
2022/06/21 02:55:45;;;;;;;9.10;2.75;;;;;;;;;;4942223;29;20043;-69
2022/06/21 02:58:15;;;;;;;7.88;2.67;;;;;;;;;;4940675;28;20638;-69
2022/06/21 03:00:43;;;;;;;4.32;2.55;;;;;;;;;;4945285;28;20047;-69
2022/06/21 03:03:15;;;;;;;6.50;2.45;;;;;;;;;;4948419;28;20114;-69
2022/06/21 03:05:42;;;;;;;8.48;3.10;;;;;;;;;;4950615;28;20759;-69
2022/06/21 03:08:09;;;;;;;7.43;2.50;;;;;;;;;;4939562;29;20051;-69
2022/06/21 03:10:39;;;;;;;8.07;2.88;;;;;;;;;;4940760;28;20103;-69
2022/06/21 03:13:09;;;;;;;6.82;2.42;;;;;;;;;;4939117;29;20051;-69
2022/06/21 03:15:37;;;;;;;7.78;2.60;;;;;;;;;;4937143;29;20451;-69
2022/06/21 03:18:06;;;;;;;6.03;3.42;;;;;;;;;;4939360;28;20099;-69
2022/06/21 03:20:34;;;;;;;5.60;2.70;;;;;;;;;;4941866;28;20051;-69
2022/06/21 03:23:02;;;;;;;10.65;3.40;;;;;;;;;;4938207;28;20081;-69
2022/06/21 03:25:31;;;;;;;12.88;3.17;;;;;;;;;;4939967;29;20047;-69
2022/06/21 03:28:01;;;;;;;11.85;3.70;;;;;;;;;;4941653;28;20490;-69
2022/06/21 03:30:30;;;;;;;8.70;3.10;;;;;;;;;;4937946;28;20047;-69
2022/06/21 03:32:58;;;;;;;9.65;3.72;;;;;;;;;;4938927;29;20044;-69
2022/06/21 03:35:26;;;;;;;9.98;3.90;;;;;;;;;;4937908;29;20059;-69
2022/06/21 03:37:54;;;;;;;10.38;2.97;;;;;;;;;;4940383;28;20052;-69
2022/06/21 03:43:16;;;;;;;9.02;3.42;;;;;;;;;;4943489;28;20050;-69
2022/06/21 03:45:45;;;;;;;12.10;3.15;;;;;;;;;;4941540;28;20106;-69
2022/06/21 03:48:17;;;;;;;12.65;3.58;;;;;;;;;;4937468;29;20048;-69
2022/06/21 03:50:47;;;;;;;13.68;3.80;;;;;;;;;;4943171;29;20055;-69
2022/06/21 03:53:17;;;;;;;7.75;3.30;;;;;;;;;;4943338;28;20662;-69
2022/06/21 03:55:47;;;;;;;8.95;3.90;;;;;;;;;;4940704;29;20087;-69
2022/06/21 03:58:20;;;;;;;11.43;4.10;;;;;;;;;;4941794;29;20052;-69
2022/06/21 04:00:49;;;;;;;12.50;4.05;;;;;;;;;;4941120;28;20051;-69
2022/06/21 04:03:18;;;;;;;10.52;3.75;;;;;;;;;;4939259;29;20562;-69
2022/06/21 04:05:48;;;;;;;6.72;3.50;;;;;;;;;;4941750;28;20051;-69
2022/06/21 04:08:19;;;;;;;10.40;4.22;;;;;;;;;;4941000;28;20823;-69
2022/06/21 04:10:51;;;;;;;8.07;3.72;;;;;;;;;;4940214;28;20066;-69
2022/06/21 04:13:23;;;;;;;13.68;4.45;;;;;;;;;;4945427;28;20542;-69
2022/06/21 04:15:51;;;;;;;8.68;3.85;;;;;;;;;;4945037;28;20106;-69
2022/06/21 04:18:20;;;;;;;10.43;4.10;;;;;;;;;;4945028;28;20059;-69
2022/06/21 04:20:52;;;;;;;11.65;3.88;;;;;;;;;;4942230;28;20510;-69
2022/06/21 04:23:25;;;;;;;8.43;3.58;;;;;;;;;;4944170;29;20051;-69
2022/06/21 04:25:56;;;;;;;9.32;4.13;;;;;;;;;;4942467;29;20066;-69
2022/06/21 04:28:27;;;;;;;7.53;4.20;;;;;;;;;;4942830;28;20076;-69
2022/06/21 04:30:58;;;;;;;14.35;4.15;;;;;;;;;;4934515;28;20051;-69
2022/06/21 04:33:26;;;;;;;13.23;4.07;;;;;;;;;;4938470;28;20102;-69
2022/06/21 04:35:56;;;;;;;11.02;4.07;;;;;;;;;;4958492;28;20058;-69
2022/06/21 04:38:26;;;;;;;10.73;5.03;;;;;;;;;;4944708;28;20114;-69
2022/06/21 04:40:58;;;;;;;10.77;3.83;;;;;;;;;;4949309;28;20062;-69
2022/06/21 04:43:28;;;;;;;11.18;4.00;;;;;;;;;;4948709;28;20078;-69
2022/06/21 04:45:57;;;;;;;9.57;3.70;;;;;;;;;;4950574;28;20050;-69
2022/06/21 04:48:31;;;;;;;10.90;3.55;;;;;;;;;;4953501;28;20051;-69
2022/06/21 04:50:58;;;;;;;;;;;;;;;;;;4952678;28;20426;-69
2022/06/21 04:53:30;;;;;;;13.77;3.30;;;;;;;;;;4941392;28;19926;-69
2022/06/21 04:56:03;;;;;;;11.23;3.47;;;;;;;;;;4953286;28;20051;-69
2022/06/21 04:58:31;;;;;;;7.50;3.65;;;;;;;;;;4949466;28;20298;-69
2022/06/21 05:00:59;;;;;;;10.30;3.60;;;;;;;;;;4950499;28;20063;-69
2022/06/21 05:03:30;;;;;;;11.32;3.83;;;;;;;;;;4950517;28;20062;-69
2022/06/21 05:05:58;;;;;;;8.63;3.30;;;;;;;;;;4945726;28;20529;-69
2022/06/21 05:08:28;;;;;;;11.40;3.85;;;;;;;;;;4946659;28;20051;-69
2022/06/21 05:10:57;;;;;;;9.07;3.45;;;;;;;;;;4941195;28;20063;-69
2022/06/21 05:13:26;;;;;;;11.93;3.60;;;;;;;;;;4948835;28;20054;-69
2022/06/21 05:15:56;;;;;;;9.75;3.42;;;;;;;;;;4948500;28;20055;-69
2022/06/21 05:18:26;;;;;;;10.80;3.33;;;;;;;;;;4945517;28;20513;-69
2022/06/21 05:20:55;;;;;;;12.45;3.25;;;;;;;;;;4948908;28;20070;-70
2022/06/21 05:23:24;;;;;;;11.02;4.15;;;;;;;;;;4946542;28;20102;-70
2022/06/21 05:25:52;;;;;;;8.85;3.30;;;;;;;;;;4947578;28;20090;-70
2022/06/21 05:28:25;;;;;;;10.77;3.15;;;;;;;;;;4955085;28;20051;-69
2022/06/21 05:30:53;;;;;;;12.38;3.33;;;;;;;;;;4952551;28;20051;-69
2022/06/21 05:33:25;;;;;;;10.38;3.75;;;;;;;;;;4948935;28;20054;-69
2022/06/21 05:35:52;;;;;;;11.27;3.75;;;;;;;;;;4952701;28;20117;-69
2022/06/21 05:38:22;;;;;;;9.02;3.13;;;;;;;;;;4948428;28;20503;-69
2022/06/21 05:40:52;;;;;;;14.30;3.55;;;;;;;;;;4947954;28;20050;-69
2022/06/21 05:43:20;;;;;;;8.13;3.40;;;;;;;;;;4949235;28;20051;-69
2022/06/21 05:45:52;;;;;;;9.63;3.50;;;;;;;;;;4944725;28;20054;-69
2022/06/21 05:48:21;;;;;;;8.68;3.13;;;;;;;;;;4948076;28;20051;-69
2022/06/21 05:50:50;;;;;;;16.17;3.53;;;;;;;;;;4947896;28;20062;-69
2022/06/21 05:53:21;;;;;;;14.73;3.88;;;;;;;;;;4967336;28;20050;-69
2022/06/21 05:55:49;;;;;;;9.23;3.10;;;;;;;;;;4953787;28;20050;-69
2022/06/21 05:58:18;;;;;;;9.68;3.85;;;;;;;;;;4954237;28;20051;-69
2022/06/21 06:00:47;;;;;;;9.27;3.47;;;;;;;;;;4952793;28;20545;-69
2022/06/21 06:03:15;;;;;;;12.02;3.70;;;;;;;;;;4954382;28;20077;-69
2022/06/21 06:05:43;;;;;;;11.40;3.65;;;;;;;;;;4952938;28;20047;-69
2022/06/21 06:08:13;;;;;;;14.93;3.70;;;;;;;;;;4948475;28;20047;-70
2022/06/21 06:10:43;;;;;;;12.48;4.18;;;;;;;;;;4954875;28;20058;-70
2022/06/21 06:13:13;;;;;;;12.80;4.20;;;;;;;;;;4950513;28;20141;-69
2022/06/21 06:15:43;;;;;;;13.75;4.13;;;;;;;;;;4955095;28;20056;-69
2022/06/21 06:18:14;;;;;;;16.45;4.43;;;;;;;;;;4953490;28;20124;-69
2022/06/21 06:20:43;;;;;;;10.20;3.15;;;;;;;;;;4955896;28;20644;-70
2022/06/21 06:23:17;;;;;;;8.40;2.90;;;;;;;;;;4954039;28;20043;-70
2022/06/21 06:25:45;;;;;;;6.65;2.85;;;;;;;;;;4956269;28;20130;-69
2022/06/21 06:28:17;;;;;;;10.57;2.58;;;;;;;;;;4950291;28;20506;-69
2022/06/21 06:30:46;;;;;;;7.22;2.70;;;;;;;;;;4951594;28;20495;-69
2022/06/21 06:33:16;;;;;;;8.65;2.20;;;;;;;;;;4951357;28;20058;-70
2022/06/21 06:35:44;;;;;;;8.98;1.80;;;;;;;;;;4951772;28;20055;-70
2022/06/21 06:38:16;;;;;;;8.20;2.65;;;;;;;;;;4953696;28;20055;-70
2022/06/21 06:40:45;;;;;;;12.00;2.80;;;;;;;;;;4953060;28;20154;-69
2022/06/21 06:43:14;;;;;;;8.75;2.45;;;;;;;;;;4950420;28;20089;-70
2022/06/21 06:45:42;;;;;;;9.00;2.63;;;;;;;;;;4952840;28;20535;-70
2022/06/21 06:48:14;;;;;;;8.00;2.60;;;;;;;;;;4958621;28;20066;-69
2022/06/21 06:50:43;;;;;;;5.95;2.05;;;;;;;;;;4950468;28;20054;-69
2022/06/21 06:53:13;;;;;;;7.40;2.45;;;;;;;;;;4943789;28;20117;-70
2022/06/21 06:55:44;;;;;;;7.20;2.47;;;;;;;;;;4948489;28;20062;-70
2022/06/21 06:58:15;;;;;;;9.80;2.85;;;;;;;;;;4944799;28;20047;-70
2022/06/21 07:00:44;;;;;;;6.80;2.00;;;;;;;;;;4949804;28;20913;-70
2022/06/21 07:03:12;;;;;;;11.32;2.50;;;;;;;;;;4944609;28;20118;-70
2022/06/21 07:05:42;;;;;;;9.20;2.40;;;;;;;;;;4944343;28;20048;-70
2022/06/21 07:08:15;;;;;;;7.20;2.13;;;;;;;;;;4947188;28;20117;-70
2022/06/21 07:10:45;;;;;;;7.30;1.97;;;;;;;;;;4944827;28;20125;-70
2022/06/21 07:13:12;;;;;;;11.13;1.92;;;;;;;;;;4942510;28;20070;-70
2022/06/21 07:15:41;;;;;;;12.77;2.33;;;;;;;;;;4947945;28;20059;-70
2022/06/21 07:18:12;;;;;;;11.77;2.72;;;;;;;;;;4945025;28;20055;-70
2022/06/21 07:20:40;;;;;;;6.60;2.22;;;;;;;;;;4947470;28;20145;-70
2022/06/21 07:23:13;;;;;;;9.75;2.70;;;;;;;;;;4965446;28;20047;-70
2022/06/21 07:25:42;;;;;;;6.07;2.10;;;;;;;;;;4951526;28;20078;-70
2022/06/21 07:28:18;;;;;;;9.05;2.38;;;;;;;;;;4945491;28;20117;-70
2022/06/21 07:30:49;;;;;;;9.40;2.95;;;;;;;;;;4947933;28;20059;-70
2022/06/21 07:33:21;;;;;;;9.70;2.55;;;;;;;;;;4953101;28;20054;-70
2022/06/21 07:35:50;;;;;;;7.60;2.28;;;;;;;;;;4949871;28;20047;-70
2022/06/21 07:38:19;;;;;;;12.23;2.67;;;;;;;;;;4944545;28;20061;-70
2022/06/21 07:40:48;;;;;;;12.38;3.33;;;;;;;;;;4944564;28;20051;-70
2022/06/21 07:43:20;;;;;;;6.70;2.47;;;;;;;;;;4947513;28;20050;-70
2022/06/21 07:45:50;;;;;;;6.10;2.72;;;;;;;;;;4944260;28;20673;-70
2022/06/21 07:48:20;;;;;;;11.98;2.90;;;;;;;;;;4949673;28;20926;-70
2022/06/21 07:50:49;;;;;;;9.05;2.90;;;;;;;;;;4946056;28;20074;-70
2022/06/21 07:53:20;;;;;;;10.60;2.53;;;;;;;;;;4945015;28;20051;-70
2022/06/21 07:55:49;;;;;;;10.82;2.70;;;;;;;;;;4941825;28;20134;-70
2022/06/21 07:58:22;;;;;;;9.15;2.50;;;;;;;;;;4944659;28;20047;-70
2022/06/21 08:06:44;;;;;;;7.40;2.47;;;;;;;;;;4869097;29;20052;-70
2022/06/21 08:09:15;;;;;;;10.35;2.20;;;;;;;;;;4868150;29;20221;-70
2022/06/21 08:11:43;;;;;;;6.57;2.38;;;;;;;;;;4901703;28;20055;-70
2022/06/21 08:14:12;;;;;;;9.65;2.40;;;;;;;;;;4944750;28;20054;-70
2022/06/21 08:16:44;;;;;;;10.45;2.30;;;;;;;;;;4963600;28;20054;-70
2022/06/21 08:19:13;;;;;;;9.63;2.10;;;;;;;;;;4944071;28;20138;-69
2022/06/21 08:21:44;;;;;;;10.57;2.58;;;;;;;;;;4945184;28;20050;-70
2022/06/21 08:24:13;;;;;;;8.10;2.45;;;;;;;;;;4948342;28;20047;-70
2022/06/21 08:26:43;;;;;;;5.63;2.03;;;;;;;;;;4951205;28;20065;-70
2022/06/21 08:29:15;;;;;;;7.32;2.10;;;;;;;;;;4951184;28;20206;-69
2022/06/21 08:31:44;;;;;;;7.78;1.90;;;;;;;;;;4944377;28;20410;-70
2022/06/21 08:34:13;;;;;;;9.95;2.25;;;;;;;;;;4943442;28;20076;-70
2022/06/21 08:36:43;;;;;;;7.57;2.00;;;;;;;;;;4942276;28;20043;-70
2022/06/21 08:39:13;;;;;;;7.57;1.88;;;;;;;;;;4944253;28;20490;-70
2022/06/21 08:41:58;;;;;;;5.75;1.98;;;;;;;;;;4950038;28;20489;-70
2022/06/21 08:44:49;;;;;;;7.55;2.08;;;;;;;;;;4949687;28;20801;-71
2022/06/21 08:47:33;;;;;;;7.32;2.03;;;;;;;;;;4943747;28;20098;-70
2022/06/21 08:50:08;;;;;;;4.95;1.63;;;;;;;;;;4944800;28;20062;-70
2022/06/21 08:52:58;;;;;;;7.00;1.88;;;;;;;;;;4943193;28;20066;-70
2022/06/21 08:55:28;;;;;;;7.75;2.08;;;;;;;;;;4947023;28;20047;-70
2022/06/21 08:58:02;;;;;;;6.68;1.85;;;;;;;;;;4946197;28;20051;-70
2022/06/21 09:00:33;;;;;;;6.68;1.70;;;;;;;;;;4945197;28;20057;-70
2022/06/21 09:03:19;;;;;;;9.07;1.90;;;;;;;;;;4949264;28;20453;-70
2022/06/21 09:05:52;;;;;;;5.68;1.70;;;;;;;;;;4948343;28;20062;-70
2022/06/21 09:08:30;;;;;;;9.18;1.90;;;;;;;;;;4946621;28;20180;-70
2022/06/21 09:11:07;;;;;;;5.63;1.60;;;;;;;;;;4949677;28;20125;-70
2022/06/21 09:13:50;;;;;;;4.07;1.40;;;;;;;;;;4953798;28;20059;-70
2022/06/21 09:16:19;;;;;;;6.78;1.80;;;;;;;;;;4946082;28;20494;-70
2022/06/21 09:19:06;;;;;;;7.78;1.88;;;;;;;;;;4947275;28;20051;-70
2022/06/21 09:21:40;;;;;;;6.13;1.85;;;;;;;;;;4944718;28;20054;-70
2022/06/21 09:24:13;;;;;;;5.15;1.65;;;;;;;;;;4952086;28;20054;-70
2022/06/21 09:26:44;;;;;;;8.27;1.80;;;;;;;;;;4950146;28;20042;-70
2022/06/21 09:29:21;;;;;;;6.20;1.70;;;;;;;;;;4951566;28;20063;-70
2022/06/21 09:31:55;;;;;;;5.18;1.50;;;;;;;;;;4946684;28;20058;-70
2022/06/21 09:34:27;;;;;;;5.65;1.88;;;;;;;;;;4945424;28;20461;-70
2022/06/21 09:36:59;;;;;;;5.78;1.92;;;;;;;;;;4947896;28;20410;-70
2022/06/21 09:39:30;;;;;;;5.30;1.60;;;;;;;;;;4949237;28;20053;-70
2022/06/21 09:42:03;;;;;;;7.05;2.10;;;;;;;;;;4949468;28;20150;-70
2022/06/21 09:44:35;;;;;;;7.07;1.90;;;;;;;;;;4948614;28;20054;-70
2022/06/21 09:47:04;;;;;;;6.22;2.33;;;;;;;;;;4946663;28;20306;-70
2022/06/21 09:49:39;;;;;;;7.43;1.63;;;;;;;;;;4946168;28;20055;-70
2022/06/21 09:52:14;;;;;;;8.75;2.05;;;;;;;;;;4943982;28;20137;-70
2022/06/21 09:54:44;;;;;;;8.93;1.98;;;;;;;;;;4948374;28;20058;-70
2022/06/21 09:57:19;;;;;;;8.88;2.13;;;;;;;;;;4950237;28;20054;-70
2022/06/21 09:59:50;;;;;;;5.05;1.65;;;;;;;;;;4945522;28;20051;-70
2022/06/21 10:02:20;;;;;;;7.70;1.77;;;;;;;;;;4950098;28;21308;-70
2022/06/21 10:04:54;;;;;;;6.40;1.75;;;;;;;;;;4948920;28;20133;-70
2022/06/21 10:07:27;;;;;;;8.00;1.88;;;;;;;;;;4946914;28;20046;-70
2022/06/21 10:10:02;;;;;;;65.72;11.07;;;;;;;;;;4947968;28;20089;-70
2022/06/21 10:12:32;;;;;;;5.10;1.70;;;;;;;;;;4942194;28;20506;-70
2022/06/21 10:15:17;;;;;;;6.95;1.55;;;;;;;;;;4945598;28;20070;-70
2022/06/21 10:17:54;;;;;;;4.90;1.85;;;;;;;;;;4944219;28;20050;-70
2022/06/21 10:20:27;;;;;;;7.43;1.83;;;;;;;;;;4945430;28;20569;-70
2022/06/21 10:23:01;;;;;;;6.32;1.50;;;;;;;;;;4945841;28;20073;-70
2022/06/21 10:25:44;;;;;;;4.97;1.50;;;;;;;;;;4948548;28;20051;-70
2022/06/21 10:28:20;;;;;;;5.27;1.63;;;;;;;;;;4953449;28;20054;-70
2022/06/21 10:30:55;;;;;;;4.45;1.40;;;;;;;;;;4950596;28;20131;-70
2022/06/21 10:33:33;;;;;;;4.47;1.10;;;;;;;;;;4946949;28;20047;-70
2022/06/21 10:36:10;;;;;;;4.60;1.60;;;;;;;;;;4949048;28;20514;-70
2022/06/21 10:38:55;;;;;;;5.50;1.52;;;;;;;;;;4953732;28;20058;-70
2022/06/21 10:41:32;;;;;;;4.65;1.30;;;;;;;;;;4955695;28;20058;-70
2022/06/21 10:44:12;;;;;;;6.35;1.50;;;;;;;;;;4950882;28;20110;-70
2022/06/21 10:46:40;;;;;;;2.88;1.30;;;;;;;;;;4947087;28;20073;-70
2022/06/21 10:49:20;;;;;;;6.18;1.50;;;;;;;;;;4968517;28;20051;-70
2022/06/21 10:51:55;;;;;;;6.30;1.67;;;;;;;;;;4947597;28;20643;-70
2022/06/21 10:54:31;;;;;;;7.72;1.88;;;;;;;;;;4951147;28;20513;-70
2022/06/21 10:57:13;;;;;;;6.88;1.70;;;;;;;;;;4951125;28;20050;-70
2022/06/21 11:02:39;;;;;;;4.80;1.85;;;;;;;;;;4914101;28;20039;-70
2022/06/21 11:05:10;;;;;;;4.43;1.70;;;;;;;;;;4952591;28;20133;-70
2022/06/21 11:07:41;;;;;;;7.28;1.75;;;;;;;;;;4950693;28;20422;-70
2022/06/21 11:10:11;;;;;;;4.65;1.95;;;;;;;;;;4950515;28;20433;-70
2022/06/21 11:12:55;;;;;;;6.50;1.80;;;;;;;;;;4948027;28;20070;-70
2022/06/21 11:15:28;;;;;;;4.78;1.90;;;;;;;;;;4948398;28;20116;-70
2022/06/21 11:18:02;;;;;;;5.07;2.00;;;;;;;;;;4941917;28;20057;-70
2022/06/21 11:20:33;;;;;;;5.97;2.15;;;;;;;;;;4947618;28;20134;-70
2022/06/21 11:23:05;;;;;;;7.75;1.73;;;;;;;;;;4936684;28;20137;-70
2022/06/21 11:25:36;;;;;;;3.57;1.50;;;;;;;;;;4946002;28;20113;-70
2022/06/21 11:28:13;;;;;;;5.80;1.52;;;;;;;;;;4945349;28;20051;-71
2022/06/21 11:30:45;;;;;;;3.80;1.58;;;;;;;;;;4945155;28;20511;-71
2022/06/21 11:33:18;;;;;;;8.05;1.67;;;;;;;;;;4945792;28;20450;-71
2022/06/21 11:35:52;;;;;;;5.75;2.22;;;;;;;;;;4945276;28;20133;-70
2022/06/21 11:38:25;;;;;;;5.93;1.73;;;;;;;;;;4947462;28;20042;-70
2022/06/21 11:40:55;;;;;;;4.13;1.60;;;;;;;;;;4948755;28;20063;-70
2022/06/21 11:43:31;;;;;;;4.32;1.48;;;;;;;;;;4948649;28;20089;-70
2022/06/21 11:46:07;;;;;;;6.20;1.58;;;;;;;;;;4949413;28;20129;-70
2022/06/21 11:48:49;;;;;;;3.75;1.25;;;;;;;;;;4944073;28;20051;-71
2022/06/21 11:51:31;;;;;;;5.10;1.40;;;;;;;;;;4942324;28;20855;-71
2022/06/21 11:54:00;;;;;;;4.95;1.35;;;;;;;;;;4944343;28;20138;-71
2022/06/21 11:56:33;;;;;;;3.83;1.58;;;;;;;;;;4948984;28;20603;-71
2022/06/21 11:59:00;;;;;;;;;;;;;;;;;;4950996;28;20471;-71
2022/06/21 12:01:32;;;;;;;3.42;1.27;;;;;;;;;;4954229;28;19929;-71
2022/06/21 12:04:04;;;;;;;3.55;1.48;;;;;;;;;;4953100;28;20051;-71
2022/06/21 12:06:35;;;;;;;4.57;1.30;;;;;;;;;;4952084;28;20050;-71
2022/06/21 12:09:07;;;;;;;4.77;1.30;;;;;;;;;;4953446;28;20058;-71
2022/06/21 12:11:38;;;;;;;4.47;1.42;;;;;;;;;;4949519;28;20785;-71
2022/06/21 12:14:12;;;;;;;4.85;1.52;;;;;;;;;;4952740;28;20058;-71
2022/06/21 12:16:45;;;;;;;4.20;1.50;;;;;;;;;;4949003;28;20050;-71
2022/06/21 12:19:14;;;;;;;4.28;1.50;;;;;;;;;;4956876;28;20506;-71
2022/06/21 12:21:46;;;;;;;4.95;1.60;;;;;;;;;;4952503;28;20050;-71
2022/06/21 12:24:15;;;;;;;3.83;1.40;;;;;;;;;;4950942;28;20050;-71
2022/06/21 12:26:43;;;;;;;5.90;1.48;;;;;;;;;;4952088;28;20162;-71
2022/06/21 12:29:14;;;;;;;3.08;1.30;;;;;;;;;;4955940;28;20501;-71
2022/06/21 12:31:47;;;;;;;3.58;1.30;;;;;;;;;;4953285;28;20070;-71
2022/06/21 12:34:17;;;;;;;3.55;1.60;;;;;;;;;;4952084;28;20085;-71
2022/06/21 12:36:45;;;;;;;2.80;1.33;;;;;;;;;;4954740;28;20054;-71
2022/06/21 12:39:16;;;;;;;3.70;1.42;;;;;;;;;;4947895;28;20502;-71
2022/06/21 12:41:56;;;;;;;5.75;1.50;;;;;;;;;;4951322;28;20089;-71
2022/06/21 12:44:29;;;;;;;4.93;1.40;;;;;;;;;;4953188;28;20074;-71
2022/06/21 12:47:04;;;;;;;2.70;1.20;;;;;;;;;;4952002;28;20109;-71
2022/06/21 12:49:44;;;;;;;3.15;1.67;;;;;;;;;;4952471;28;20443;-71
2022/06/21 12:52:16;;;;;;;4.53;1.60;;;;;;;;;;4948695;28;20042;-71
2022/06/21 12:54:50;;;;;;;4.93;1.27;;;;;;;;;;4952245;28;20063;-71
2022/06/21 12:57:39;;;;;;;5.97;1.88;;;;;;;;;;4947034;28;20533;-71
2022/06/21 13:00:08;;;;;;;5.57;1.70;;;;;;;;;;4946280;28;20105;-71
2022/06/21 13:02:57;;;;;;;4.18;1.55;;;;;;;;;;4950476;28;20422;-71
2022/06/21 13:05:39;;;;;;;5.03;1.58;;;;;;;;;;4941884;28;20097;-71
2022/06/21 13:08:12;;;;;;;4.40;1.70;;;;;;;;;;4966190;28;20075;-71
2022/06/21 13:10:44;;;;;;;4.03;1.63;;;;;;;;;;4951408;28;20058;-71
2022/06/21 13:13:22;;;;;;;4.40;1.90;;;;;;;;;;4950251;28;20043;-71
2022/06/21 13:15:57;;;;;;;5.93;1.90;;;;;;;;;;4949370;28;20082;-72
2022/06/21 13:18:41;;;;;;;6.05;2.15;;;;;;;;;;4950710;28;20093;-71
2022/06/21 13:21:15;;;;;;;7.68;2.30;;;;;;;;;;4950151;28;20055;-71
2022/06/21 13:23:48;;;;;;;25.13;3.10;;;;;;;;;;4949765;28;20047;-71
2022/06/21 13:26:21;;;;;;;5.07;2.10;;;;;;;;;;4952758;28;20054;-71
2022/06/21 13:29:00;;;;;;;4.82;1.90;;;;;;;;;;4954367;28;20083;-71
2022/06/21 13:31:29;;;;;;;8.10;2.00;;;;;;;;;;4950343;28;20159;-71
2022/06/21 13:34:02;;;;;;;4.53;1.83;;;;;;;;;;4949878;28;20062;-71
2022/06/21 13:36:41;;;;;;;7.40;2.10;;;;;;;;;;4955249;28;20050;-71
2022/06/21 13:39:17;;;;;;;5.72;2.08;;;;;;;;;;4954887;28;20505;-71
2022/06/21 13:44:34;;;;;;;7.57;2.22;;;;;;;;;;4971845;28;20070;-71
2022/06/21 13:47:03;;;;;;;11.70;2.25;;;;;;;;;;4948149;28;20050;-71
2022/06/21 13:49:32;;;;;;;5.55;1.85;;;;;;;;;;4955970;28;20058;-71
2022/06/21 13:52:06;;;;;;;5.63;2.13;;;;;;;;;;4953612;28;20814;-71
2022/06/21 13:54:37;;;;;;;5.47;2.03;;;;;;;;;;4954672;28;20054;-72
2022/06/21 13:57:07;;;;;;;8.43;2.08;;;;;;;;;;4952359;28;20050;-71
2022/06/21 13:59:36;;;;;;;6.85;2.00;;;;;;;;;;4955585;28;20126;-71
2022/06/21 14:02:06;;;;;;;5.43;2.00;;;;;;;;;;4951585;28;20050;-71
2022/06/21 14:04:41;;;;;;;6.20;2.05;;;;;;;;;;4952984;28;20054;-71
2022/06/21 14:07:13;;;;;;;5.95;1.92;;;;;;;;;;4954281;28;20055;-71
2022/06/21 14:09:44;;;;;;;3.28;1.60;;;;;;;;;;4951924;28;20055;-71
2022/06/21 14:12:15;;;;;;;7.72;1.90;;;;;;;;;;4950989;28;20051;-72
2022/06/21 14:14:46;;;;;;;7.05;2.40;;;;;;;;;;4954358;28;20083;-71
2022/06/21 14:17:16;;;;;;;7.88;2.10;;;;;;;;;;4951224;28;20478;-71
2022/06/21 14:19:46;;;;;;;6.85;2.10;;;;;;;;;;4951755;28;20502;-71
2022/06/21 14:22:18;;;;;;;10.60;2.17;;;;;;;;;;4955295;28;20061;-72
2022/06/21 14:24:50;;;;;;;5.35;1.92;;;;;;;;;;4951915;28;20066;-72
2022/06/21 14:27:19;;;;;;;6.20;2.00;;;;;;;;;;4954645;28;20054;-71
2022/06/21 14:29:48;;;;;;;6.63;2.20;;;;;;;;;;4954559;28;21285;-71
2022/06/21 14:32:18;;;;;;;6.13;2.05;;;;;;;;;;4955179;28;20101;-71
2022/06/21 14:34:50;;;;;;;6.88;2.10;;;;;;;;;;4952131;28;20058;-71
2022/06/21 14:37:23;;;;;;;8.93;2.22;;;;;;;;;;4950033;28;20125;-71
2022/06/21 14:39:55;;;;;;;5.47;1.98;;;;;;;;;;4954388;28;20054;-71
2022/06/21 14:42:25;;;;;;;3.78;1.60;;;;;;;;;;4951195;28;20042;-71
2022/06/21 14:44:55;;;;;;;3.90;1.70;;;;;;;;;;4943851;28;20058;-71
2022/06/21 14:47:24;;;;;;;4.05;1.73;;;;;;;;;;4945094;28;20053;-71
2022/06/21 14:49:54;;;;;;;6.80;1.85;;;;;;;;;;4949721;28;20058;-71
2022/06/21 14:52:39;;;;;;;4.40;1.70;;;;;;;;;;4950654;28;20117;-71
2022/06/21 14:55:16;;;;;;;5.40;1.77;;;;;;;;;;4949727;28;20092;-71
2022/06/21 14:57:52;;;;;;;6.07;2.05;;;;;;;;;;4966170;28;20058;-70
2022/06/21 15:00:27;;;;;;;3.97;1.83;;;;;;;;;;4953486;28;20051;-70
2022/06/21 15:03:14;;;;;;;5.18;2.05;;;;;;;;;;4954911;28;20145;-70
2022/06/21 15:05:55;;;;;;;5.50;1.92;;;;;;;;;;4943541;28;20138;-70
2022/06/21 15:08:25;;;;;;;4.43;1.80;;;;;;;;;;4949939;28;20446;-70
2022/06/21 15:11:02;;;;;;;6.03;1.90;;;;;;;;;;4942519;28;20059;-70
2022/06/21 15:13:32;;;;;;;4.68;1.92;;;;;;;;;;4948707;28;20047;-70
2022/06/21 15:16:00;;;;;;;6.35;1.88;;;;;;;;;;4948086;28;20047;-70
2022/06/21 15:18:29;;;;;;;5.00;1.80;;;;;;;;;;4946342;28;20097;-70
2022/06/21 15:21:00;;;;;;;4.80;1.92;;;;;;;;;;4951183;28;20058;-70